createdAt,value
2023-03-16T05:02:33.369Z,10.63
2023-03-16T05:04:59.956Z,7.10
2023-03-16T05:07:26.543Z,7.82
2023-03-16T05:09:53.325Z,8.57
2023-03-16T05:12:19.876Z,9.93
2023-03-16T05:14:46.456Z,8.50
2023-03-16T05:17:14.755Z,8.25
2023-03-16T05:19:42.310Z,9.93
2023-03-16T05:22:08.991Z,9.32
2023-03-16T05:24:37.151Z,9.20
2023-03-16T05:27:04.180Z,9.85
2023-03-16T05:29:33.314Z,9.50
2023-03-16T05:32:01.988Z,11.02
2023-03-16T05:34:29.351Z,9.95
2023-03-16T05:36:56.128Z,11.20
2023-03-16T05:39:23.863Z,10.05
2023-03-16T05:41:50.537Z,11.30
2023-03-16T05:44:17.255Z,11.57
2023-03-16T05:46:46.108Z,10.55
2023-03-16T05:49:13.340Z,11.07
2023-03-16T05:51:40.757Z,12.60
2023-03-16T05:54:08.485Z,10.60
2023-03-16T05:56:35.122Z,10.68
2023-03-16T05:59:06.604Z,11.00
2023-03-16T06:01:36.682Z,9.60
2023-03-16T06:04:10.453Z,10.20
2023-03-16T06:06:37.228Z,10.35
2023-03-16T06:09:05.227Z,12.52
2023-03-16T06:11:32.956Z,9.50
2023-03-16T06:14:02.617Z,10.23
2023-03-16T06:16:30.976Z,10.10
2023-03-16T06:19:00.174Z,8.75
2023-03-16T06:21:27.055Z,11.05
2023-03-16T06:23:54.086Z,10.85
2023-03-16T06:26:21.562Z,13.97
2023-03-16T06:28:48.928Z,8.63
2023-03-16T06:31:15.588Z,8.55
2023-03-16T06:33:42.524Z,9.30
2023-03-16T06:36:09.213Z,7.35
2023-03-16T06:38:36.034Z,9.23
2023-03-16T06:41:05.659Z,9.15
2023-03-16T06:43:32.209Z,8.70
2023-03-16T06:45:58.978Z,8.43
2023-03-16T06:48:25.622Z,11.55
2023-03-16T06:50:52.356Z,9.63
2023-03-16T06:53:18.842Z,8.10
2023-03-16T06:55:45.342Z,9.20
2023-03-16T06:58:11.954Z,8.65
2023-03-16T07:00:38.558Z,8.82
2023-03-16T07:03:06.234Z,11.10
2023-03-16T07:05:33.217Z,10.38
2023-03-16T07:07:59.774Z,9.57
2023-03-16T07:10:26.615Z,8.65
2023-03-16T07:12:53.277Z,8.40
2023-03-16T07:15:21.127Z,10.10
2023-03-16T07:17:48.089Z,10.52
2023-03-16T07:20:14.779Z,9.27
2023-03-16T07:22:41.856Z,7.88
2023-03-16T07:25:09.537Z,11.05
2023-03-16T07:27:36.246Z,9.33
2023-03-16T07:30:05.235Z,9.93
2023-03-16T07:32:32.524Z,8.45
2023-03-16T07:34:59.592Z,9.13
2023-03-16T07:37:26.506Z,10.13
2023-03-16T07:39:53.288Z,8.90
2023-03-16T07:42:19.974Z,9.88
2023-03-16T07:44:46.513Z,6.53
2023-03-16T07:47:13.522Z,7.90
2023-03-16T07:49:41.724Z,7.63
2023-03-16T07:52:08.669Z,10.97
2023-03-16T07:54:35.320Z,7.32
2023-03-16T07:57:04.131Z,6.72
2023-03-16T07:59:31.391Z,10.00
2023-03-16T08:01:58.020Z,8.95
2023-03-16T08:04:25.120Z,7.10
2023-03-16T08:07:00.180Z,9.82
2023-03-16T08:09:27.751Z,9.45
2023-03-16T08:11:54.420Z,8.63
2023-03-16T08:14:21.310Z,7.30
2023-03-16T08:16:47.871Z,6.33
2023-03-16T08:19:14.869Z,9.35
2023-03-16T08:21:59.746Z,9.10
2023-03-16T08:24:29.704Z,10.55
2023-03-16T08:26:57.561Z,7.05
2023-03-16T08:29:25.928Z,8.63
2023-03-16T08:31:56.446Z,7.43
2023-03-16T08:34:24.681Z,9.57
2023-03-16T08:36:51.343Z,8.13
2023-03-16T08:39:17.996Z,8.70
2023-03-16T08:41:45.879Z,6.47
2023-03-16T08:44:13.125Z,7.82
2023-03-16T08:46:40.768Z,8.55
2023-03-16T08:49:07.602Z,7.25
2023-03-16T08:51:34.363Z,10.30
2023-03-16T08:54:01.006Z,5.50
2023-03-16T08:56:28.913Z,7.45
2023-03-16T08:58:55.709Z,7.82
2023-03-16T09:01:22.555Z,6.88
2023-03-16T09:03:51.320Z,6.78
2023-03-16T09:06:18.357Z,7.07
2023-03-16T09:08:46.153Z,6.97
2023-03-16T09:11:15.524Z,5.90
2023-03-16T09:13:42.922Z,7.57
2023-03-16T09:16:09.853Z,6.15
2023-03-16T09:18:36.949Z,6.13
2023-03-16T09:21:06.640Z,6.40
2023-03-16T09:23:34.756Z,7.65
2023-03-16T09:26:03.187Z,9.07
2023-03-16T09:28:32.974Z,5.85
2023-03-16T09:31:00.240Z,6.37
2023-03-16T09:33:28.853Z,7.75
2023-03-16T09:35:57.612Z,6.10
2023-03-16T09:38:28.764Z,5.72
2023-03-16T09:41:19.420Z,6.60
2023-03-16T09:43:53.295Z,6.50
2023-03-16T09:46:36.303Z,8.40
2023-03-16T09:49:03.789Z,6.85
2023-03-16T09:51:52.249Z,5.25
2023-03-16T09:54:29.497Z,5.95
2023-03-16T09:56:57.691Z,5.17
2023-03-16T09:59:25.425Z,6.18
2023-03-16T10:02:39.302Z,5.85
2023-03-16T10:05:11.434Z,6.13
2023-03-16T10:07:52.261Z,8.60
2023-03-16T10:10:42.167Z,7.17
2023-03-16T10:13:25.005Z,6.28
2023-03-16T10:15:53.467Z,5.25
2023-03-16T10:18:27.303Z,5.55
2023-03-16T10:20:55.595Z,5.90
2023-03-16T10:23:24.864Z,6.93
2023-03-16T10:25:54.089Z,7.63
2023-03-16T10:28:23.489Z,5.30
2023-03-16T10:30:53.721Z,5.07
2023-03-16T10:33:32.208Z,5.35
2023-03-16T10:36:22.884Z,7.53
2023-03-16T10:39:00.654Z,7.32
2023-03-16T10:41:38.186Z,5.78
2023-03-16T10:44:22.750Z,6.38
2023-03-16T10:46:58.258Z,6.57
2023-03-16T10:49:27.398Z,4.87
2023-03-16T10:51:55.311Z,6.47
2023-03-16T10:54:26.176Z,5.03
2023-03-16T10:56:52.847Z,6.05
2023-03-16T10:59:35.162Z,7.63
2023-03-16T11:02:23.770Z,6.83
2023-03-16T11:04:51.078Z,4.68
2023-03-16T11:07:19.182Z,5.90
2023-03-16T11:09:47.293Z,5.85
2023-03-16T11:12:15.596Z,7.13
2023-03-16T11:14:45.808Z,5.57
2023-03-16T11:17:18.238Z,5.32
2023-03-16T11:20:00.359Z,5.75
2023-03-16T11:22:27.626Z,7.53
2023-03-16T11:25:04.311Z,5.75
2023-03-16T11:27:40.585Z,7.53
2023-03-16T11:30:27.129Z,5.60
2023-03-16T11:32:54.488Z,5.68
2023-03-16T11:35:21.889Z,6.13
2023-03-16T11:38:12.059Z,6.35
2023-03-16T11:41:01.928Z,6.00
2023-03-16T11:43:40.697Z,4.57
2023-03-16T11:46:17.377Z,5.22
2023-03-16T11:49:05.085Z,5.03
2023-03-16T11:51:52.989Z,5.45
2023-03-16T11:54:44.388Z,5.63
2023-03-16T11:57:32.995Z,5.53
2023-03-16T12:00:08.473Z,6.10
2023-03-16T12:02:50.443Z,5.13
2023-03-16T12:05:32.502Z,6.95
2023-03-16T12:08:24.660Z,5.37
2023-03-16T12:10:58.620Z,4.53
2023-03-16T12:13:30.981Z,5.85
2023-03-16T12:16:03.153Z,6.15
2023-03-16T12:18:34.486Z,6.38
2023-03-16T12:21:09.422Z,4.40
2023-03-16T12:23:43.787Z,6.47
2023-03-16T12:26:12.597Z,6.50
2023-03-16T12:28:42.215Z,5.38
2023-03-16T12:31:20.060Z,4.32
2023-03-16T12:34:01.941Z,5.90
2023-03-16T12:37:02.052Z,5.10
2023-03-16T12:40:24.640Z,4.72
2023-03-16T12:43:01.461Z,7.15
2023-03-16T12:45:48.435Z,4.63
2023-03-16T12:48:27.460Z,5.03
2023-03-16T12:50:58.574Z,4.65
2023-03-16T12:53:43.470Z,5.25
2023-03-16T12:56:13.492Z,5.18
2023-03-16T12:58:43.736Z,7.63
2023-03-16T13:01:12.515Z,4.93
2023-03-16T13:03:40.184Z,4.50
2023-03-16T13:06:07.267Z,3.90
2023-03-16T13:08:47.453Z,5.10
2023-03-16T13:11:17.747Z,6.35
2023-03-16T13:14:27.315Z,4.00
2023-03-16T13:17:06.631Z,3.80
2023-03-16T13:19:37.823Z,6.00
2023-03-16T13:22:22.699Z,6.43
2023-03-16T13:25:13.124Z,6.50
2023-03-16T13:27:40.904Z,3.83
2023-03-16T13:30:25.557Z,5.43
2023-03-16T13:32:56.864Z,5.95
2023-03-16T13:35:27.922Z,4.82
2023-03-16T13:37:54.661Z,5.20
2023-03-16T13:40:29.786Z,5.67
2023-03-16T13:42:57.892Z,5.10
2023-03-16T13:45:37.967Z,5.05
2023-03-16T13:48:05.504Z,4.75
2023-03-16T13:50:36.218Z,4.97
2023-03-16T13:53:04.816Z,6.30
2023-03-16T13:55:36.610Z,4.10
2023-03-16T13:58:04.534Z,6.05
2023-03-16T14:00:35.140Z,4.07
2023-03-16T14:03:14.399Z,6.53
2023-03-16T14:05:41.476Z,5.93
2023-03-16T14:08:20.568Z,4.05
2023-03-16T14:10:47.801Z,5.90
2023-03-16T14:13:30.314Z,4.50
2023-03-16T14:16:01.329Z,3.90
2023-03-16T14:18:36.117Z,5.40
2023-03-16T14:21:09.237Z,5.07
2023-03-16T14:23:45.223Z,4.78
2023-03-16T14:26:18.740Z,5.10
2023-03-16T14:29:14.786Z,5.85
2023-03-16T14:31:41.539Z,7.23
2023-03-16T14:34:31.225Z,5.72
2023-03-16T14:37:07.419Z,3.80
2023-03-16T14:39:34.166Z,4.38
2023-03-16T14:42:04.029Z,5.03
2023-03-16T14:44:33.355Z,4.23
2023-03-16T14:47:01.480Z,3.33
2023-03-16T14:49:33.235Z,4.22
2023-03-16T14:52:02.814Z,4.40
2023-03-16T14:54:29.687Z,13.13
2023-03-16T14:57:01.501Z,4.73
2023-03-16T14:59:28.571Z,5.07
2023-03-16T15:01:56.165Z,3.03
2023-03-16T15:04:30.033Z,3.63
2023-03-16T15:06:57.693Z,3.90
2023-03-16T15:09:38.727Z,5.40
2023-03-16T15:12:15.675Z,4.90
2023-03-16T15:15:01.238Z,4.32
2023-03-16T15:17:28.025Z,2.75
2023-03-16T15:19:54.693Z,3.60
2023-03-16T15:22:27.809Z,6.23
2023-03-16T15:24:55.137Z,4.78
2023-03-16T15:27:25.132Z,3.72
2023-03-16T15:29:52.240Z,6.78
2023-03-16T15:32:19.440Z,4.15
2023-03-16T15:34:46.731Z,4.83
2023-03-16T15:37:15.437Z,4.03
2023-03-16T15:39:42.913Z,4.22
2023-03-16T15:42:19.171Z,4.80
2023-03-16T15:44:46.739Z,3.38
2023-03-16T15:47:14.604Z,3.23
2023-03-16T15:49:47.815Z,3.63
2023-03-16T15:52:26.877Z,3.55
2023-03-16T15:54:53.683Z,3.65
2023-03-16T15:57:20.947Z,3.47
2023-03-16T15:59:47.580Z,5.63
2023-03-16T16:02:32.105Z,3.65
2023-03-16T16:04:59.696Z,4.07
2023-03-16T16:07:27.359Z,5.03
2023-03-16T16:09:53.977Z,3.38
2023-03-16T16:12:32.450Z,2.67
2023-03-16T16:15:00.166Z,2.80
2023-03-16T16:17:43.808Z,4.82
2023-03-16T16:20:27.352Z,5.28
2023-03-16T16:22:55.708Z,3.58
2023-03-16T16:25:24.590Z,4.40
2023-03-16T16:27:51.931Z,3.72
2023-03-16T16:30:26.205Z,3.28
2023-03-16T16:32:53.845Z,3.42
2023-03-16T16:35:23.435Z,4.25
2023-03-16T16:37:50.659Z,2.77
2023-03-16T16:40:38.145Z,3.58
2023-03-16T16:43:06.272Z,4.63
2023-03-16T16:45:32.815Z,3.25
2023-03-16T16:47:59.441Z,3.92
2023-03-16T16:50:28.342Z,4.00
2023-03-16T16:52:55.402Z,4.07
2023-03-16T16:55:24.500Z,6.88
2023-03-16T16:57:54.505Z,3.70
2023-03-16T17:00:23.171Z,3.45
2023-03-16T17:02:54.193Z,3.50
2023-03-16T17:05:23.974Z,4.18
2023-03-16T17:07:51.106Z,3.75
2023-03-16T17:10:26.608Z,3.92
2023-03-16T17:12:57.111Z,3.95
2023-03-16T17:15:28.159Z,3.60
2023-03-16T17:18:03.594Z,3.78
2023-03-16T17:20:30.354Z,4.18
2023-03-16T17:22:58.793Z,4.03
2023-03-16T17:25:26.067Z,4.93
2023-03-16T17:27:55.126Z,4.07
2023-03-16T17:30:30.303Z,3.22
2023-03-16T17:33:03.709Z,3.88
2023-03-16T17:35:30.675Z,4.50
2023-03-16T17:37:57.759Z,4.00
2023-03-16T17:40:25.493Z,4.47
2023-03-16T17:42:55.355Z,4.80
2023-03-16T17:45:26.926Z,5.47
2023-03-16T17:47:55.252Z,3.55
2023-03-16T17:50:25.104Z,5.32
2023-03-16T17:53:13.099Z,3.45
2023-03-16T17:55:40.109Z,6.20
2023-03-16T17:58:30.238Z,3.80
2023-03-16T18:00:58.481Z,4.15
2023-03-16T18:03:30.668Z,3.88
2023-03-16T18:05:57.508Z,3.88
2023-03-16T18:08:26.914Z,6.20
2023-03-16T18:10:59.164Z,5.07
2023-03-16T18:13:33.459Z,5.75
2023-03-16T18:16:01.224Z,4.75
2023-03-16T18:18:31.215Z,6.65
2023-03-16T18:21:00.348Z,3.78
2023-03-16T18:23:29.978Z,5.60
2023-03-16T18:26:03.524Z,5.20
2023-03-16T18:28:31.393Z,7.57
2023-03-16T18:30:59.206Z,9.25
2023-03-16T18:33:31.532Z,7.45
2023-03-16T18:36:15.702Z,8.03
2023-03-16T18:38:48.516Z,7.00
2023-03-16T18:41:27.527Z,6.78
2023-03-16T18:43:56.677Z,6.07
2023-03-16T18:46:36.247Z,4.50
2023-03-16T18:49:32.687Z,3.63
2023-03-16T18:52:22.090Z,3.55
2023-03-16T18:54:48.744Z,4.10
2023-03-16T18:57:21.476Z,4.03
2023-03-16T18:59:49.164Z,5.00
2023-03-16T19:02:40.293Z,4.85
2023-03-16T19:05:14.315Z,5.30
2023-03-16T19:07:42.878Z,5.00
2023-03-16T19:10:21.538Z,6.45
2023-03-16T19:12:48.661Z,4.15
2023-03-16T19:15:19.853Z,4.88
2023-03-16T19:17:47.401Z,4.37
2023-03-16T19:20:16.569Z,6.47
2023-03-16T19:22:45.509Z,7.43
2023-03-16T19:25:39.746Z,5.53
2023-03-16T19:28:11.078Z,4.00
2023-03-16T19:30:38.347Z,3.70
2023-03-16T19:33:22.757Z,3.67
2023-03-16T19:35:52.249Z,3.78
2023-03-16T19:38:20.490Z,4.40
2023-03-16T19:40:59.005Z,4.05
2023-03-16T19:43:27.730Z,4.60
2023-03-16T19:45:56.372Z,5.45
2023-03-16T19:48:33.066Z,4.07
2023-03-16T19:51:00.010Z,4.35
2023-03-16T19:53:27.349Z,5.05
2023-03-16T19:55:54.250Z,6.57
2023-03-16T19:58:36.117Z,5.75
2023-03-16T20:01:02.985Z,4.20
2023-03-16T20:03:33.238Z,6.28
2023-03-16T20:05:59.859Z,5.65
2023-03-16T20:08:29.028Z,6.57
2023-03-16T20:11:08.678Z,6.55
2023-03-16T20:13:36.264Z,6.70
2023-03-16T20:16:03.483Z,5.20
2023-03-16T20:18:30.373Z,5.72
2023-03-16T20:20:57.288Z,6.40
2023-03-16T20:23:27.057Z,6.68
2023-03-16T20:26:03.767Z,5.97
2023-03-16T20:28:36.387Z,7.53
2023-03-16T20:31:05.049Z,5.57
2023-03-16T20:33:34.713Z,5.93
2023-03-16T20:36:01.382Z,5.65
2023-03-16T20:38:27.983Z,5.55
2023-03-16T20:40:54.857Z,6.38
2023-03-16T20:43:33.290Z,7.55
2023-03-16T20:46:02.401Z,6.13
2023-03-16T20:48:29.403Z,6.82
2023-03-16T20:50:59.508Z,6.68
2023-03-16T20:53:27.138Z,5.57
2023-03-16T20:55:57.056Z,5.95
2023-03-16T20:58:28.055Z,6.40
2023-03-16T21:00:58.479Z,6.70
2023-03-16T21:03:29.169Z,5.35
2023-03-16T21:05:59.628Z,6.32
2023-03-16T21:08:27.234Z,5.70
2023-03-16T21:10:56.303Z,6.47
2023-03-16T21:13:30.394Z,5.53
2023-03-16T21:15:59.737Z,5.95
2023-03-16T21:18:26.771Z,8.18
2023-03-16T21:20:53.772Z,6.78
2023-03-16T21:23:22.084Z,5.33
2023-03-16T21:25:57.598Z,5.43
2023-03-16T21:28:27.103Z,5.38
2023-03-16T21:30:56.075Z,6.45
2023-03-16T21:33:35.975Z,5.50
2023-03-16T21:36:04.312Z,5.60
2023-03-16T21:38:32.310Z,6.57
2023-03-16T21:40:59.740Z,6.35
2023-03-16T21:43:26.826Z,7.38
2023-03-16T21:45:54.051Z,7.65
2023-03-16T21:48:24.083Z,5.93
2023-03-16T21:50:52.433Z,8.20
2023-03-16T21:53:28.697Z,7.47
2023-03-16T21:55:56.046Z,6.18
2023-03-16T21:58:24.252Z,8.30
2023-03-16T22:00:55.413Z,6.20
2023-03-16T22:03:44.194Z,6.60
